Tiempo atmosférico en la estación meteorológica de La Almunia De Doña Godina, Zaragoza (370 m.)



Fecha
DESCASC
Temp. máxima en grados centígrados (hora)
DESCASC
Temp. mínima en grados centígrados (hora)
DESCASC
Temp. media en grados centígrados
DESCASC
Racha de viento máxima en m/sg (hora)
DESCASC
Velocidad máxima media en intervalos de 10 minutos(hora)
DESCASC
Precipitaciones diarias en mm
DESCASC
Precipitaciones de 00:00 a 06:00 en mm
DESCASC
Precipitaciones de 06:00 a 12:00 en mm
DESCASC
Precipitaciones de 12:00 a 18:00 en mm
DESCASC
Precipitaciones de 18:00 a 24:00 en mm
DESCASC
05-12-2019 10 (16:40) 6.8 (07:50) 8.4 4.44 (05:10) 2.5 (05:10) 3.6 2.6 1 0 0
04-12-2019 8.8 (22:40) 4.2 (09:00) 6.5 8.61 (21:20) 3.89 (21:50) 3.8 0 0.2 3.6 0
03-12-2019 7.7 (15:40) -0.4 (08:00) 3.6 5.83 (13:40) 3.89 (13:40) 0 0 0 0 0
02-12-2019 12.7 (14:40) 4 (00:00) 8.3 9.72 (15:50) 6.11 (15:50) 0 0 0 0 0
01-12-2019 14.2 (13:50) 3.8 (00:00) 9 7.78 (07:50) 4.17 (08:00) 0.6 0.6 0 0 0
30-11-2019 20.5 (14:30) 7.4 (00:00) 14 12.5 (15:20) 7.5 (16:30) 6.2 0 0 0 6.2
29-11-2019 16.1 (16:40) 6.9 (00:00) 11.5 11.11 (01:40) 4.44 (03:50) 0 0 0 0 0
28-11-2019 17.7 (13:50) 12.6 (04:20) 15.2 10.28 (02:20) 6.11 (17:50) 0 0 0 0 0
27-11-2019 18.3 (14:30) 13 (00:00) 15.6 13.89 (00:50) 5.56 (00:50) 0 0 0 0 0
26-11-2019 19.9 (15:10) 11.9 (00:00) 15.9 10.56 (07:40) 6.11 (13:30) 0 0 0 0 0
25-11-2019 18.7 (13:20) 9.5 (00:00) 14.1 13.33 (06:20) 6.94 (06:20) 0 0 0 0 0
24-11-2019 14 (14:30) 7.2 (00:00) 10.6 10 (03:30) 5.28 (14:40) 0.2 0 0 0 0.2
23-11-2019 14.4 (15:30) 7.9 (00:00) 11.1 15 (02:20) 8.33 (02:30) 3 0.8 2.2 0 0
22-11-2019 14.1 (14:50) 3.4 (00:00) 8.8 7.22 (21:40) 3.61 (21:40) 3.2 0 0 0.8 2.4
21-11-2019 14.5 (15:50) 4.6 (00:00) 9.5 8.89 (15:00) 5 (15:10) 0 0 0 0 0
20-11-2019 13 (15:10) 0.6 (07:50) 6.8 4.72 (01:30) 2.5 (01:30) 0 0 0 0 0
19-11-2019 13.4 (14:40) 3.1 (00:00) 8.2 6.94 (11:20) 4.17 (11:30) 0 0 0 0 0
18-11-2019 10.7 (13:50) 5.1 (00:00) 7.9 11.39 (08:00) 6.39 (12:10) 0.2 0.2 0 0 0
17-11-2019 12.9 (13:40) 5.7 (00:00) 9.3 10.83 (09:50) 5.28 (09:50) 1.2 0 0 1 0.2
16-11-2019 10.6 (12:40) 1 (00:00) 5.8 10 (13:30) 5.28 (13:30) 0 0 0 0 0
15-11-2019 11.5 (13:40) 3.6 (00:00) 7.5 10.56 (13:50) 5 (13:10) 0 0 0 0 0
14-11-2019 13.4 (00:00) 4.7 (00:00) 9 15 (07:20) 8.33 (07:20) 4 0 2.8 0 1.2
13-11-2019 14.9 (15:40) 6.5 (00:00) 10.7 11.39 (14:30) 6.94 (14:40) 7.4 5 2.2 0.2 0
12-11-2019 14.7 (13:50) 7.3 (00:00) 11 8.89 (21:10) 4.17 (13:40) 2.6 0 0 0 2.6
11-11-2019 11.9 (15:40) 6.3 (04:30) 9.1 13.61 (17:30) 7.22 (17:40) 0.4 0 0 0.4 0
10-11-2019 11.1 (15:00) 4.8 (00:00) 8 10.83 (15:50) 5.28 (15:50) 0 0 0 0 0
09-11-2019 13.4 (16:10) 6.3 (00:00) 9.8 13.06 (18:10) 5.83 (11:30) 3.8 0 0 0 3.8
08-11-2019 12.9 (13:20) 7.4 (03:50) 10.1 13.61 (15:00) 5.56 (13:30) 0.6 0 0 0.6 0

Gráficas

Temp. máximas Temp. mínimas Temp. medias Precipitaciones Rachas de viento máximas Velocidades máximas media en intervalos de 10 minutos

Datos horarios

Fecha y hora oficial Temperatura (ºC) Velocidad del viento (km/h) Dirección del viento Racha (km/h) Dirección de racha Precipitación (mm) Presión (hPa) Tendencia (hPa) Humedad (%)
2019-12-07 23:00:00 6.1 8 Sudoeste 11 Sudoeste 0 -- -- 92
2019-12-07 22:00:00 5.4 2 Sudoeste 5 Sudoeste 0 -- -- 90
2019-12-07 21:00:00 6.7 3 Sudoeste 6 Sur 0 -- -- 87
2019-12-07 20:00:00 7.8 0 Calma 11 Oeste 0 -- -- 84
2019-12-07 19:00:00 8.5 4 Oeste 12 Oeste 0 -- -- 83
2019-12-07 18:00:00 10.7 0 Calma 6 Norte 0 -- -- 77
2019-12-07 17:00:00 14.3 4 Norte 7 Norte 0 -- -- 63
2019-12-07 16:00:00 15.4 4 Norte 10 Noroeste 0 -- -- 57
2019-12-07 15:00:00 15 5 Norte 10 Noroeste 0 -- -- 58
2019-12-07 14:00:00 15.2 4 Norte 9 Sudoeste 0 -- -- 60
2019-12-07 13:00:00 13.4 4 Norte 9 Sudoeste 0 -- -- 63
2019-12-07 12:00:00 11.7 3 Este 6 Este 0 -- -- 74
2019-12-07 11:00:00 9.4 3 Sudeste 5 Este 0 -- -- 83
2019-12-07 10:00:00 6 2 Este 6 Sur 0 -- -- 98
2019-12-07 09:00:00 2.6 6 Norte 8 Norte 0 -- -- 98
2019-12-07 08:00:00 1.6 4 Sudoeste 10 Sudoeste 0 -- -- 97
2019-12-07 07:00:00 2.2 4 Sudoeste 6 Sudoeste 0 -- -- 97
2019-12-07 06:00:00 2.4 2 Sur 7 Sudoeste 0 -- -- 97
2019-12-07 05:00:00 2.9 0 Calma 9 Oeste 0 -- -- 97
2019-12-07 04:00:00 2.2 2 Norte 7 Sur 0 -- -- 96
2019-12-07 03:00:00 2.5 4 Sudoeste 6 Sur 0 -- -- 95
2019-12-07 02:00:00 3.2 0 Calma 4 Norte 0 -- -- 95
2019-12-07 01:00:00 4.2 3 Sudoeste 5 Sudoeste 0 -- -- 94
2019-12-07 00:00:00 5 2 Noroeste 6 Noroeste 0 -- -- 94
2019-12-06 23:00:00 5.6 2 Oeste 8 Noroeste 0 -- -- 94
2019-12-06 22:00:00 6.2 0 Calma 9 Oeste 0 -- -- 92
2019-12-06 21:00:00 6.9 4 Oeste 8 Oeste 0 -- -- 92
2019-12-06 20:00:00 7 0 Calma 6 Oeste 0 -- -- 89
2019-12-06 19:00:00 8.1 3 Sur 5 Sur 0 -- -- 87
2019-12-06 18:00:00 10.6 3 Sudoeste 6 Sudeste 0 -- -- 79
2019-12-06 17:00:00 14.2 4 Sudeste 7 Sudeste 0 -- -- 65
2019-12-06 16:00:00 15 5 Sudeste 9 Este 0 -- -- 60
2019-12-06 15:00:00 14.9 3 Este 9 Este 0 -- -- 61
2019-12-06 14:00:00 14.6 3 Sudeste 9 Este 0 -- -- 61
2019-12-06 13:00:00 13.2 2 Este 9 Norte 0 -- -- 67
2019-12-06 12:00:00 11.2 4 Este 6 Este 0 -- -- 79
2019-12-06 11:00:00 9.1 3 Norte 10 Noroeste 0 -- -- 86
2019-12-06 10:00:00 8.1 4 Norte 6 Norte 0 -- -- 92
2019-12-06 09:00:00 7.5 2 Norte 4 Sudoeste 0 -- -- 93
2019-12-06 08:00:00 7.4 0 Calma 4 Sur 0 -- -- 92
2019-12-06 07:00:00 7.3 0 Calma 7 Noroeste 0 -- -- 92
2019-12-06 06:00:00 7.3 3 Sudoeste 5 Sur 0 -- -- 91
2019-12-06 05:00:00 7.1 0 Calma 6 Noroeste 0 -- -- 91
2019-12-06 04:00:00 6.8 2 Nordeste 6 Sur 0 -- -- 92
2019-12-06 03:00:00 6.5 3 Sudoeste 5 Sudoeste 0 -- -- 89
2019-12-06 02:00:00 8.2 0 Calma 7 Este 0 -- -- 85
2019-12-06 01:00:00 8.5 3 Este 12 Este 0 -- -- 84
2019-12-06 00:00:00 8.8 3 Sudeste 8 Sudeste 0 -- -- 82
2019-12-05 23:00:00 8.3 2 Sur 7 Sudoeste 0 -- -- 94
2019-12-05 22:00:00 8.5 0 Calma 6 Noroeste 0 -- -- 94
2019-12-05 21:00:00 8.6 0 Calma 5 Sudoeste 0 -- -- 93
2019-12-05 20:00:00 8.7 0 Calma 4 Sudoeste 0 -- -- 92
2019-12-05 19:00:00 9 0 Calma 5 Oeste 0 -- -- 90
2019-12-05 18:00:00 9.4 4 Sudoeste 5 Sudoeste 0 -- -- 87
2019-12-05 17:00:00 9.9 2 Sudeste 8 Sudeste 0 -- -- 84
2019-12-05 16:00:00 9.9 3 Sudeste 5 Sudeste 0 -- -- 81
2019-12-05 15:00:00 9.5 3 Sudoeste 10 Sur 0 -- -- 84
2019-12-05 14:00:00 8.5 6 Sur 13 Sur 0 -- -- 89
2019-12-05 13:00:00 8.3 6 Sur 12 Sur 0 -- -- 89
2019-12-05 12:00:00 8 8 Sur 13 Sur 0.2 -- -- 92
2019-12-05 11:00:00 7.7 7 Sudeste 13 Sudeste 0 -- -- 93
2019-12-05 10:00:00 7.2 6 Sur 12 Sudeste 0.2 -- -- 95
2019-12-05 09:00:00 6.9 5 Sur 10 Sur 0.2 -- -- 95
2019-12-05 08:00:00 6.8 6 Sudoeste 8 Sur 0.2 -- -- 94
2019-12-05 07:00:00 7 4 Sudeste 8 Sur 0.2 -- -- 92
2019-12-05 06:00:00 7 4 Norte 16 Norte 0.2 -- -- 90
2019-12-05 05:00:00 7 8 Nordeste 14 Norte 0.6 -- -- 90
2019-12-05 04:00:00 7.4 6 Nordeste 12 Nordeste 0.4 -- -- 92
2019-12-05 03:00:00 7.5 4 Nordeste 12 Sur 1 -- -- 93
2019-12-05 02:00:00 7.7 4 Sur 11 Sur 0.2 -- -- 91
2019-12-05 01:00:00 8.1 3 Sudoeste 12 Norte 0.2 -- -- 86
2019-12-05 00:00:00 8.4 4 Norte 19 Norte 0 -- -- 81
2019-12-04 23:00:00 8.8 9 Norte 28 Norte 0 -- -- 77
2019-12-04 22:00:00 8.5 9 Nordeste 31 Norte 0 -- -- 78
2019-12-04 21:00:00 8.1 7 Norte 12 Norte 0 -- -- 90
2019-12-04 20:00:00 8.1 5 Sur 10 Sudeste 0 -- -- 93
2019-12-04 19:00:00 7.9 2 Oeste 9 Sur 0 -- -- 94
2019-12-04 18:00:00 7.9 4 Sudoeste 11 Sudoeste 0 -- -- 94
2019-12-04 17:00:00 7.3 3 Oeste 9 Sur 1.2 -- -- 94
2019-12-04 16:00:00 7.1 4 Sur 8 Sudeste 1.2 -- -- 91
2019-12-04 15:00:00 7.2 0 Calma 9 Este 0.6 -- -- 86
2019-12-04 14:00:00 6.8 6 Este 10 Este 0.4 -- -- 88
2019-12-04 13:00:00 5.8 0 Calma 10 Este 0.2 -- -- 90
2019-12-04 12:00:00 6 7 Este 14 Sudeste 0.2 -- -- 86
2019-12-04 11:00:00 5.4 2 Nordeste 6 Nordeste 0 -- -- 90
2019-12-04 10:00:00 5 2 Nordeste 6 Norte 0 -- -- 94
2019-12-04 09:00:00 4.2 2 Nordeste 4 Sudoeste 0 -- -- 91
2019-12-04 08:00:00 4.9 0 Calma 4 Nordeste 0 -- -- 91
2019-12-04 07:00:00 4.9 0 Calma 6 Sudoeste 0 -- -- 89
2019-12-04 06:00:00 4.9 0 Calma 5 Noroeste 0 -- -- 90
2019-12-04 05:00:00 5 2 Nordeste 4 Nordeste 0 -- -- 88
2019-12-04 04:00:00 4.8 0 Calma 5 Oeste 0 -- -- 87
2019-12-04 03:00:00 5.2 3 Norte 8 Oeste 0 -- -- 87
2019-12-04 02:00:00 5.1 2 Sudoeste 4 Oeste 0 -- -- 86
2019-12-04 01:00:00 5 2 Norte 5 Sudoeste 0 -- -- 87
2019-12-04 00:00:00 4.8 3 Sudoeste 5 Sudoeste 0 -- -- 85
2019-12-03 23:00:00 4.7 0 Calma 12 Oeste 0 -- -- 85
2019-12-03 22:00:00 4 7 Oeste 13 Oeste 0 -- -- 87
2019-12-03 21:00:00 1.7 3 Sur 6 Sudoeste 0 -- -- 91
2019-12-03 20:00:00 2.5 5 Sudoeste 8 Sudoeste 0 -- -- 87
2019-12-03 19:00:00 4.5 3 Sudoeste 6 Sudoeste 0 -- -- 80
2019-12-03 18:00:00 6.4 4 Nordeste 12 Nordeste 0 -- -- 72
2019-12-03 17:00:00 7 8 Nordeste 15 Nordeste 0 -- -- 69
2019-12-03 16:00:00 7.5 7 Norte 15 Norte 0 -- -- 67
2019-12-03 15:00:00 7.5 9 Nordeste 21 Nordeste 0 -- -- 69
2019-12-03 14:00:00 7.4 12 Nordeste 21 Nordeste 0 -- -- 67
2019-12-03 13:00:00 7.4 4 Sudeste 9 Sur 0 -- -- 64
2019-12-03 12:00:00 7.4 4 Sur 8 Sudeste 0 -- -- 66
2019-12-03 11:00:00 6.6 5 Sur 9 Sur 0 -- -- 73
2019-12-03 10:00:00 4 0 Calma 3 Este 0 -- -- 85
2019-12-03 09:00:00 0.5 2 Oeste 5 Sudoeste 0 -- -- 94
2019-12-03 08:00:00 -0.4 2 Sudoeste 5 Sudoeste 0 -- -- 93
2019-12-03 07:00:00 0.1 4 Sudoeste 8 Sudoeste 0 -- -- 92
2019-12-03 06:00:00 -0.2 5 Sur 10 Sudoeste 0 -- -- 92
2019-12-03 05:00:00 -0.1 5 Sudoeste 9 Sudoeste 0 -- -- 91
2019-12-03 04:00:00 0.3 3 Sudoeste 9 Sudoeste 0 -- -- 88
2019-12-03 03:00:00 0.9 4 Sudoeste 9 Sur 0 -- -- 86
2019-12-03 02:00:00 2.5 8 Sudoeste 14 Sur 0 -- -- 83
2019-12-03 01:00:00 2.2 6 Sudoeste 12 Sudoeste 0 -- -- 84
2019-12-03 00:00:00 5.1 5 Norte 27 Norte 0 -- -- 72
2019-12-02 23:00:00 6.2 14 Norte 29 Norte 0 -- -- 68
2019-12-02 22:00:00 7 14 Norte 25 Norte 0 -- -- 71
2019-12-02 21:00:00 6.9 4 Noroeste 21 Noroeste 0 -- -- 70
2019-12-02 20:00:00 8.1 8 Oeste 19 Oeste 0 -- -- 67
2019-12-02 19:00:00 8.2 5 Noroeste 29 Norte 0 -- -- 70
2019-12-02 18:00:00 9.1 15 Norte 32 Noroeste 0 -- -- 67
2019-12-02 17:00:00 10 14 Norte 30 Norte 0 -- -- 64
2019-12-02 16:00:00 10.9 15 Norte 35 Norte 0 -- -- 63
2019-12-02 15:00:00 12.4 20 Norte 33 Noroeste 0 -- -- 58
2019-12-02 14:00:00 12.5 19 Norte 31 Norte 0 -- -- 59
2019-12-02 13:00:00 12.1 16 Norte 32 Norte 0 -- -- 63
2019-12-02 12:00:00 11.5 17 Norte 28 Norte 0 -- -- 65
2019-12-02 11:00:00 10.1 3 Sudeste 8 Sudeste 0 -- -- 73
2019-12-02 10:00:00 7.2 3 Sur 6 Sur 0 -- -- 93
2019-12-02 09:00:00 4.7 0 Calma 8 Sudoeste 0 -- -- 94
2019-12-02 08:00:00 4.6 3 Sudoeste 5 Sur 0 -- -- 95
2019-12-02 07:00:00 4.1 4 Sudoeste 8 Sudoeste 0 -- -- 94
2019-12-02 06:00:00 4 0 Calma 6 Sudoeste 0 -- -- 94
2019-12-02 05:00:00 4.6 4 Sudoeste 8 Sudoeste 0 -- -- 94
2019-12-02 04:00:00 4.7 3 Sudoeste 6 Sudoeste 0 -- -- 94
2019-12-02 03:00:00 4.3 4 Sudoeste 8 Sudoeste 0 -- -- 94
2019-12-02 02:00:00 4.5 3 Sudoeste 5 Sudoeste 0 -- -- 95
2019-12-02 01:00:00 4.5 4 Sudoeste 6 Sudoeste 0 -- -- 95
2019-12-02 00:00:00 4 3 Sudoeste 7 Sudoeste 0 -- -- 95
2019-12-01 23:00:00 3.8 0 Calma 6 Sudoeste 0 -- -- 95
2019-12-01 22:00:00 4 3 Sudoeste 6 Sur 0 -- -- 94
2019-12-01 21:00:00 4.4 5 Sudoeste 9 Sudoeste 0 -- -- 91
2019-12-01 20:00:00 5.2 3 Sudoeste 6 Sudoeste 0 -- -- 90
2019-12-01 19:00:00 6.1 4 Sudoeste 7 Sudoeste 0 -- -- 87
2019-12-01 18:00:00 8.1 0 Calma 5 Sur 0 -- -- 80
2019-12-01 17:00:00 10.3 4 Norte 12 Nordeste 0 -- -- 67
2019-12-01 16:00:00 12.2 8 Nordeste 13 Nordeste 0 -- -- 61
2019-12-01 15:00:00 12 8 Nordeste 21 Nordeste 0 -- -- 68
2019-12-01 14:00:00 13.8 8 Norte 17 Nordeste 0 -- -- 59
2019-12-01 13:00:00 13.9 7 Sudoeste 21 Sudoeste 0 -- -- 56
2019-12-01 12:00:00 12.8 9 Oeste 21 Oeste 0 -- -- 60
2019-12-01 11:00:00 10.9 12 Sudoeste 23 Sudoeste 0 -- -- 68
2019-12-01 10:00:00 8.6 12 Sudoeste 27 Oeste 0 -- -- 74
2019-12-01 09:00:00 7.7 13 Sudoeste 27 Sudoeste 0 -- -- 77
2019-12-01 08:00:00 7.4 15 Sudoeste 28 Sudoeste 0 -- -- 79
2019-12-01 07:00:00 7.3 12 Sudoeste 19 Sudoeste 0 -- -- 79
2019-12-01 06:00:00 7.3 2 Norte 18 Sudoeste 0 -- -- 80
2019-12-01 05:00:00 8 10 Oeste 23 Oeste 0 -- -- 77
2019-12-01 04:00:00 7.8 5 Oeste 22 Oeste 0 -- -- 78
2019-12-01 03:00:00 7.8 6 Oeste 19 Oeste 0 -- -- 79
2019-12-01 02:00:00 8.4 8 Sudoeste 22 Sudoeste 0 -- -- 80
2019-12-01 01:00:00 8.4 6 Sudoeste 17 Sudoeste 0.6 -- -- 86
2019-12-01 00:00:00 9.3 5 Oeste 23 Sudoeste 1.2 -- -- 83
2019-11-30 23:00:00 10.7 12 Sudoeste 24 Sudoeste 0.2 -- -- 76
2019-11-30 22:00:00 10.5 9 Sur 15 Sudoeste 2.6 -- -- 92
2019-11-30 21:00:00 11.1 10 Norte 26 Nordeste 0.8 -- -- 88
2019-11-30 20:00:00 14.3 8 Oeste 31 Oeste 1.4 -- -- 76
2019-11-30 19:00:00 17 13 Sudoeste 29 Sudoeste 0 -- -- 58
2019-11-30 18:00:00 17 17 Sudoeste 42 Sudoeste 0 -- -- 58
2019-11-30 17:00:00 17.5 18 Sudoeste 42 Sudoeste 0 -- -- 56
2019-11-30 16:00:00 18.1 18 Sudoeste 45 Sudoeste 0 -- -- 55
2019-11-30 15:00:00 19.6 23 Sudoeste 42 Sudoeste 0 -- -- 52
2019-11-30 14:00:00 19.6 18 Sudoeste 40 Sudoeste 0 -- -- 52
2019-11-30 13:00:00 20.1 17 Sudoeste 35 Sudoeste 0 -- -- 54
2019-11-30 12:00:00 19.7 13 Sudoeste 29 Sudoeste 0 -- -- 54
2019-11-30 11:00:00 18.6 9 Sudoeste 24 Sudoeste 0 -- -- 60
2019-11-30 10:00:00 16.3 6 Sur 19 Sur 0 -- -- 68
2019-11-30 09:00:00 12.7 4 Oeste 8 Oeste 0 -- -- 83
2019-11-30 08:00:00 11.8 4 Sudoeste 13 Sudeste 0 -- -- 85
2019-11-30 07:00:00 13 8 Nordeste 17 Sudoeste 0 -- -- 80
2019-11-30 06:00:00 13.1 7 Oeste 18 Sudoeste 0 -- -- 80
2019-11-30 05:00:00 9.6 4 Noroeste 10 Sur 0 -- -- 92
2019-11-30 04:00:00 8.8 4 Este 9 Oeste 0 -- -- 92
2019-11-30 03:00:00 9.1 4 Sudoeste 15 Sudoeste 0 -- -- 91
2019-11-30 02:00:00 7.4 3 Nordeste 6 Nordeste 0 -- -- 92
2019-11-30 01:00:00 8.1 2 Noroeste 7 Oeste 0 -- -- 92
2019-11-30 00:00:00 8.4 5 Sudoeste 9 Sudoeste 0 -- -- 93
2019-11-29 23:00:00 7.1 4 Sudoeste 6 Sudoeste 0 -- -- 91
2019-11-29 22:00:00 7.8 0 Calma 6 Sudoeste 0 -- -- 90
2019-11-29 21:00:00 8.6 0 Calma 4 Sudoeste 0 -- -- 88
2019-11-29 20:00:00 9.4 0 Calma 6 Sur 0 -- -- 86
2019-11-29 19:00:00 10.1 4 Sur 8 Sudoeste 0 -- -- 83
2019-11-29 18:00:00 12.2 5 Sudoeste 7 Sudoeste 0 -- -- 76
2019-11-29 17:00:00 15.4 0 Calma 7 Nordeste 0 -- -- 65
2019-11-29 16:00:00 15.1 4 Este 12 Nordeste 0 -- -- 66
2019-11-29 15:00:00 15.8 9 Nordeste 17 Nordeste 0 -- -- 65
2019-11-29 14:00:00 15.8 10 Nordeste 23 Nordeste 0 -- -- 64
2019-11-29 13:00:00 15.6 11 Nordeste 20 Nordeste 0 -- -- 66
2019-11-29 12:00:00 15.3 12 Norte 24 Nordeste 0 -- -- 68
2019-11-29 11:00:00 15.5 9 Norte 15 Norte 0 -- -- 70
2019-11-29 10:00:00 13.3 5 Norte 11 Noroeste 0 -- -- 78
2019-11-29 09:00:00 12.6 3 Este 15 Norte 0 -- -- 80
2019-11-29 08:00:00 14.1 7 Noroeste 26 Sudoeste 0 -- -- 75
2019-11-29 07:00:00 14.5 11 Sudoeste 27 Sudoeste 0 -- -- 72
2019-11-29 06:00:00 14.6 12 Sudoeste 30 Sudoeste 0 -- -- 71
2019-11-29 05:00:00 14.8 12 Oeste 27 Sudoeste 0 -- -- 69
2019-11-29 04:00:00 15 14 Sudoeste 37 Oeste 0 -- -- 68
2019-11-29 03:00:00 14.8 13 Sudoeste 32 Oeste 0 -- -- 68
2019-11-29 02:00:00 14.9 11 Sudoeste 40 Oeste 0 -- -- 66
2019-11-29 01:00:00 15.1 12 Sudoeste 30 Sudoeste 0 -- -- 64
2019-11-29 00:00:00 14.8 8 Oeste 28 Oeste 0 -- -- 65
2019-11-28 23:00:00 14.6 10 Sudoeste 27 Sudoeste 0 -- -- 65
2019-11-28 22:00:00 14.5 8 Sudoeste 31 Sudoeste 0 -- -- 64
2019-11-28 21:00:00 14.5 12 Sudoeste 25 Sudoeste 0 -- -- 62
2019-11-28 20:00:00 14.4 8 Sudoeste 30 Sudoeste 0 -- -- 61
2019-11-28 19:00:00 14.5 8 Sudoeste 26 Sudoeste 0 -- -- 60
2019-11-28 18:00:00 14.8 18 Sudoeste 35 Sudoeste 0 -- -- 60
2019-11-28 17:00:00 15.8 20 Sudoeste 34 Sudoeste 0 -- -- 57
2019-11-28 16:00:00 16.4 16 Sudoeste 35 Sudoeste 0 -- -- 54
2019-11-28 15:00:00 16.8 17 Sudoeste 36 Oeste 0 -- -- 54
2019-11-28 14:00:00 17.7 20 Sudoeste 36 Sudoeste 0 -- -- 51
2019-11-28 13:00:00 16.4 11 Sudoeste 29 Sudoeste 0 -- -- 56
2019-11-28 12:00:00 16.5 10 Oeste 33 Oeste 0 -- -- 56
2019-11-28 11:00:00 15 10 Oeste 33 Sudoeste 0 -- -- 60
2019-11-28 10:00:00 14.3 13 Oeste 30 Oeste 0 -- -- 61
2019-11-28 09:00:00 13.1 7 Oeste 22 Noroeste 0 -- -- 64
2019-11-28 08:00:00 12.6 10 Oeste 31 Oeste 0 -- -- 65
2019-11-28 07:00:00 13 10 Sudoeste 25 Sudoeste 0 -- -- 64
2019-11-28 06:00:00 12.6 8 Sudoeste 33 Oeste 0 -- -- 66
2019-11-28 05:00:00 12.8 8 Oeste 22 Oeste 0 -- -- 65
2019-11-28 04:00:00 12.7 6 Sudoeste 30 Sudoeste 0 -- -- 65
2019-11-28 03:00:00 12.8 8 Sudoeste 37 Sudoeste 0 -- -- 65
2019-11-28 02:00:00 13.1 9 Sudoeste 31 Oeste 0 -- -- 64
2019-11-28 01:00:00 13.3 12 Sudoeste 34 Oeste 0 -- -- 63
2019-11-28 00:00:00 13.4 14 Sudoeste 30 Oeste 0 -- -- 62
2019-11-27 23:00:00 13.2 13 Sudoeste 35 Sudoeste 0 -- -- 64
2019-11-27 22:00:00 13.9 19 Sudoeste 38 Sudoeste 0 -- -- 61
2019-11-27 21:00:00 13.7 16 Sudoeste 33 Sudoeste 0 -- -- 61
2019-11-27 20:00:00 14.7 9 Sudoeste 21 Sudoeste 0 -- -- 55
2019-11-27 19:00:00 15.1 4 Sudoeste 14 Oeste 0 -- -- 52
2019-11-27 18:00:00 15.8 4 Sudoeste 26 Oeste 0 -- -- 51
2019-11-27 17:00:00 16.8 8 Oeste 22 Oeste 0 -- -- 46
2019-11-27 16:00:00 17.3 10 Sudoeste 27 Sudoeste 0 -- -- 44
2019-11-27 15:00:00 17.4 13 Oeste 33 Oeste 0 -- -- 44
2019-11-27 14:00:00 17.5 14 Oeste 41 Oeste 0 -- -- 43
2019-11-27 06:00:00 -- -- -- -- -- -- -- -- --
2019-11-27 05:00:00 14.7 9 Oeste 37 Oeste 0 -- -- 57
2019-11-27 04:00:00 15.2 12 Oeste 45 Oeste 0 -- -- 59
2019-11-27 03:00:00 15.4 15 Sudoeste 38 Oeste 0 -- -- 65
2019-11-27 02:00:00 16.3 18 Oeste 47 Sudoeste 0 -- -- 60
2019-11-27 01:00:00 16.8 18 Sudoeste 50 Sudoeste 0 -- -- 57
2019-11-27 00:00:00 17.3 17 Oeste 34 Oeste 0 -- -- 59
2019-11-26 23:00:00 16.7 6 Norte 25 Sur 0 -- -- 67
2019-11-26 22:00:00 17.6 9 Sudoeste 28 Sudoeste 0 -- -- 64
2019-11-26 21:00:00 17.6 8 Sudoeste 26 Sudoeste 0 -- -- 62
2019-11-26 20:00:00 17.7 12 Sudoeste 32 Sudoeste 0 -- -- 61
2019-11-26 19:00:00 17.5 14 Sudoeste 33 Sudoeste 0 -- -- 59
2019-11-26 18:00:00 17.1 19 Sudoeste 32 Sudoeste 0 -- -- 60
2019-11-26 17:00:00 18.3 10 Sudoeste 35 Sudoeste 0 -- -- 57
2019-11-26 16:00:00 19.8 14 Sudoeste 32 Oeste 0 -- -- 54
2019-11-26 15:00:00 19.5 13 Sudoeste 38 Oeste 0 -- -- 55
2019-11-26 14:00:00 19 20 Sudoeste 36 Sudoeste 0 -- -- 56
2019-11-26 13:00:00 18.8 18 Sudoeste 31 Sudoeste 0 -- -- 56
2019-11-26 12:00:00 17.2 15 Sudoeste 31 Oeste 0 -- -- 58
2019-11-26 11:00:00 14.4 9 Oeste 26 Sudoeste 0 -- -- 67
2019-11-26 10:00:00 13.1 5 Sudoeste 27 Sudoeste 0 -- -- 71
2019-11-26 09:00:00 12.7 9 Sudoeste 35 Oeste 0 -- -- 71
2019-11-26 08:00:00 12.2 10 Sudoeste 38 Sudoeste 0 -- -- 72
2019-11-26 07:00:00 11.9 17 Sudoeste 35 Sudoeste 0 -- -- 74
2019-11-26 06:00:00 12.5 14 Oeste 32 Oeste 0 -- -- 72
2019-11-26 05:00:00 12.9 14 Sudoeste 29 Sudoeste 0 -- -- 71
2019-11-26 04:00:00 13.3 14 Sudoeste 29 Oeste 0 -- -- 68
2019-11-26 03:00:00 13.2 11 Sudoeste 27 Sudoeste 0 -- -- 68
2019-11-26 02:00:00 14 12 Sudoeste 27 Noroeste 0 -- -- 64
2019-11-26 01:00:00 13.7 12 Sudoeste 33 Sudoeste 0 -- -- 66
2019-11-26 00:00:00 13.9 10 Sudoeste 22 Sudoeste 0 -- -- 66
2019-11-25 23:00:00 14.1 8 Sudoeste 22 Oeste 0 -- -- 65
2019-11-25 22:00:00 14 8 Sudoeste 17 Sudoeste 0 -- -- 64
2019-11-25 21:00:00 13.9 8 Oeste 16 Sudoeste 0 -- -- 64
2019-11-25 20:00:00 10.6 3 Noroeste 10 Noroeste 0 -- -- 84
2019-11-25 19:00:00 11.5 4 Sur 6 Sudeste 0 -- -- 81
2019-11-25 18:00:00 12.8 4 Nordeste 8 Noroeste 0 -- -- 76
2019-11-25 17:00:00 15.1 4 Norte 18 Oeste 0 -- -- 67
2019-11-25 16:00:00 16.8 8 Sudoeste 28 Sudoeste 0 -- -- 60
2019-11-25 15:00:00 17.6 14 Sudoeste 32 Sudoeste 0 -- -- 60
2019-11-25 14:00:00 18.4 10 Oeste 33 Sudoeste 0 -- -- 57
2019-11-25 13:00:00 18.4 14 Sudoeste 33 Oeste 0 -- -- 56
2019-11-25 12:00:00 17 18 Oeste 37 Oeste 0 -- -- 60
2019-11-25 11:00:00 15.7 15 Sudoeste 38 Sudoeste 0 -- -- 65
2019-11-25 10:00:00 14.2 20 Sudoeste 42 Sudoeste 0 -- -- 68
2019-11-25 09:00:00 12.7 14 Sudoeste 37 Oeste 0 -- -- 73
2019-11-25 08:00:00 12.2 15 Oeste 33 Oeste 0 -- -- 74
2019-11-25 07:00:00 11.8 17 Oeste 48 Oeste 0 -- -- 74
2019-11-25 06:00:00 10.5 16 Oeste 32 Sudoeste 0 -- -- 80
2019-11-25 05:00:00 10.3 12 Oeste 35 Sudoeste 0 -- -- 80
2019-11-25 04:00:00 9.8 17 Sudoeste 35 Sudoeste 0 -- -- 76
2019-11-25 03:00:00 10.7 20 Sudoeste 32 Sudoeste 0 -- -- 71
2019-11-25 02:00:00 10.4 8 Sudoeste 24 Sudoeste 0 -- -- 67
2019-11-25 01:00:00 10.3 7 Sudoeste 17 Oeste 0 -- -- 67
2019-11-25 00:00:00 9.5 4 Oeste 27 Sudoeste 0.2 -- -- 76
2019-11-24 23:00:00 10.9 15 Sudoeste 34 Sudoeste 0 -- -- 64
2019-11-24 22:00:00 11.3 10 Sudoeste 32 Oeste 0 -- -- 61
2019-11-24 21:00:00 11.2 13 Sudoeste 28 Oeste 0 -- -- 59
2019-11-24 20:00:00 9.7 5 Oeste 17 Oeste 0 -- -- 61
2019-11-24 19:00:00 9 3 Sudoeste 22 Oeste 0 -- -- 63
2019-11-24 18:00:00 10.8 10 Oeste 25 Oeste 0 -- -- 57
2019-11-24 17:00:00 11.5 12 Oeste 27 Sudoeste 0 -- -- 56
2019-11-24 16:00:00 13.5 11 Oeste 33 Sudoeste 0 -- -- 51
2019-11-24 15:00:00 13.9 14 Oeste 32 Sudoeste 0 -- -- 51
2019-11-24 14:00:00 13 12 Oeste 26 Oeste 0 -- -- 54
2019-11-24 13:00:00 11.6 12 Sudoeste 27 Sudoeste 0 -- -- 58
2019-11-24 12:00:00 11.1 14 Sudoeste 30 Oeste 0 -- -- 59
2019-11-24 11:00:00 11.4 14 Oeste 30 Oeste 0 -- -- 58
2019-11-24 10:00:00 9.9 14 Sudoeste 30 Oeste 0 -- -- 61
2019-11-24 09:00:00 8.4 12 Oeste 22 Oeste 0 -- -- 66
2019-11-24 08:00:00 7.2 8 Sudoeste 23 Oeste 0 -- -- 70
2019-11-24 07:00:00 7.7 8 Oeste 22 Oeste 0 -- -- 68
2019-11-24 06:00:00 7.8 9 Oeste 22 Sudoeste 0 -- -- 68
2019-11-24 05:00:00 8.2 6 Sudoeste 25 Sudoeste 0 -- -- 66
2019-11-24 04:00:00 9.1 10 Oeste 36 Oeste 0 -- -- 63
2019-11-24 03:00:00 9.6 9 Oeste 30 Oeste 0 -- -- 63
2019-11-24 02:00:00 10.1 14 Oeste 30 Oeste 0 -- -- 60
2019-11-24 01:00:00 10.1 12 Oeste 24 Oeste 0 -- -- 60
2019-11-24 00:00:00 9.9 8 Oeste 21 Sudoeste 0 -- -- 62
2019-11-23 23:00:00 10.5 9 Oeste 26 Oeste 0 -- -- 61
2019-11-23 22:00:00 10.2 9 Oeste 31 Oeste 0 -- -- 62
2019-11-23 21:00:00 10.1 9 Oeste 19 Oeste 0 -- -- 60
2019-11-23 20:00:00 9.7 5 Noroeste 21 Oeste 0 -- -- 61
2019-11-23 19:00:00 11.5 9 Oeste 30 Oeste 0 -- -- 54
2019-11-23 18:00:00 12.2 10 Oeste 31 Oeste 0 -- -- 50
2019-11-23 17:00:00 13.5 11 Oeste 28 Oeste 0 -- -- 46
2019-11-23 16:00:00 13.9 15 Oeste 42 Oeste 0 -- -- 46
2019-11-23 15:00:00 14.2 15 Oeste 42 Oeste 0 -- -- 46
2019-11-23 14:00:00 12.2 14 Oeste 35 Oeste 0 -- -- 53
2019-11-23 13:00:00 11.1 14 Oeste 40 Oeste 0 -- -- 59
2019-11-23 12:00:00 10.2 20 Oeste 40 Oeste 0 -- -- 60
2019-11-23 11:00:00 10.2 19 Oeste 45 Oeste 0 -- -- 63
2019-11-23 10:00:00 9.8 18 Oeste 43 Oeste 0 -- -- 65
2019-11-23 09:00:00 9.5 19 Oeste 38 Oeste 0.2 -- -- 70
2019-11-23 08:00:00 8 13 Sudoeste 37 Oeste 1.8 -- -- 82
2019-11-23 07:00:00 8.8 17 Sudoeste 48 Oeste 0.2 -- -- 73
2019-11-23 06:00:00 10.5 20 Oeste 51 Oeste 0 -- -- 64
2019-11-23 05:00:00 10.5 18 Oeste 42 Oeste 0 -- -- 64
2019-11-23 04:00:00 10.1 4 Sudoeste 32 Oeste 0 -- -- 72
2019-11-23 03:00:00 10.3 18 Sudoeste 54 Sudoeste 0.6 -- -- 71
2019-11-23 02:00:00 11 25 Sudoeste 52 Sudoeste 0.2 -- -- 72
2019-11-23 01:00:00 11.6 14 Sudoeste 37 Oeste 0 -- -- 73
2019-11-23 00:00:00 8.8 2 Nordeste 16 Sudoeste 0 -- -- 86
2019-11-22 23:00:00 9.9 9 Sudoeste 19 Sudoeste 0.2 -- -- 83
2019-11-22 22:00:00 10.5 12 Sudoeste 26 Oeste 1.4 -- -- 84
2019-11-22 21:00:00 11.7 4 Oeste 14 Oeste 0.8 -- -- 92
2019-11-22 20:00:00 11.4 5 Oeste 12 Noroeste 0 -- -- 91
2019-11-22 19:00:00 11.1 3 Oeste 21 Norte 0 -- -- 89
2019-11-22 18:00:00 11.5 4 Sudoeste 13 Este 0 -- -- 89
2019-11-22 17:00:00 12.1 3 Sudeste 12 Sudoeste 0.2 -- -- 88
2019-11-22 16:00:00 13 6 Sudeste 21 Sudeste 0.6 -- -- 80
2019-11-22 15:00:00 14 6 Sur 20 Sudeste 0 -- -- 71
2019-11-22 14:00:00 13.4 9 Sudeste 19 Sudeste 0 -- -- 69
2019-11-22 13:00:00 12.6 8 Sudeste 20 Sudeste 0 -- -- 74
2019-11-22 12:00:00 10.3 2 Nordeste 10 Noroeste 0 -- -- 84
2019-11-22 11:00:00 8.6 5 Norte 8 Norte 0 -- -- 85
2019-11-22 10:00:00 6.6 0 Calma 6 Norte 0 -- -- 90
2019-11-22 09:00:00 5.5 3 Norte 8 Norte 0 -- -- 93
2019-11-22 08:00:00 5 0 Calma 4 Norte 0 -- -- 93
2019-11-22 07:00:00 5 3 Oeste 6 Sur 0 -- -- 94
2019-11-22 06:00:00 4.5 2 Nordeste 6 Oeste 0 -- -- 95
2019-11-22 05:00:00 3.8 0 Calma 7 Oeste 0 -- -- 94
2019-11-22 04:00:00 3.5 0 Calma 7 Sudoeste 0 -- -- 93
2019-11-22 03:00:00 4.4 2 Sudoeste 9 Sudoeste 0 -- -- 92
2019-11-22 02:00:00 4.4 0 Calma 5 Norte 0 -- -- 92
2019-11-22 01:00:00 4.6 0 Calma 5 Sudoeste 0 -- -- 91
2019-11-22 00:00:00 5 4 Sudoeste 6 Sudoeste 0 -- -- 90
2019-11-21 23:00:00 5.6 0 Calma 6 Sur 0 -- -- 87
2019-11-21 22:00:00 7 3 Sur 10 Sudoeste 0 -- -- 83
2019-11-21 21:00:00 5.8 4 Sudoeste 13 Sudoeste 0 -- -- 86
2019-11-21 20:00:00 7 4 Sudoeste 12 Sudoeste 0 -- -- 81
2019-11-21 19:00:00 9.2 3 Sudoeste 9 Noroeste 0 -- -- 73
2019-11-21 18:00:00 11.5 3 Oeste 19 Sudoeste 0 -- -- 64
2019-11-21 17:00:00 12.9 6 Sudoeste 21 Sudoeste 0 -- -- 58
2019-11-21 16:00:00 14.5 10 Sudoeste 32 Sudoeste 0 -- -- 56
2019-11-21 15:00:00 13.6 18 Sudoeste 32 Sudoeste 0 -- -- 58
2019-11-21 14:00:00 12.6 8 Sudoeste 17 Sudoeste 0 -- -- 61
2019-11-21 13:00:00 12 7 Sudoeste 26 Sudoeste 0 -- -- 62
2019-11-21 12:00:00 12.7 13 Sudoeste 32 Sur 0 -- -- 59
2019-11-21 11:00:00 10.3 6 Sur 12 Oeste 0 -- -- 66
2019-11-21 10:00:00 8.1 4 Norte 8 Norte 0 -- -- 77
2019-11-21 09:00:00 7.4 2 Noroeste 10 Sudoeste 0 -- -- 77
2019-11-21 08:00:00 -- -- -- -- -- -- -- -- --
2019-11-21 07:00:00 -- -- -- -- -- -- -- -- --
2019-11-21 06:00:00 -- -- -- -- -- -- -- -- --
2019-11-21 05:00:00 -- -- -- -- -- -- -- -- --
2019-11-21 04:00:00 -- -- -- -- -- -- -- -- --
2019-11-21 03:00:00 -- -- -- -- -- -- -- -- --
2019-11-21 02:00:00 -- -- -- -- -- -- -- -- --
2019-11-21 01:00:00 -- -- -- -- -- -- -- -- --
2019-11-21 00:00:00 -- -- -- -- -- -- -- -- --
2019-11-20 23:00:00 -- -- -- -- -- -- -- -- --
2019-11-20 22:00:00 -- -- -- -- -- -- -- -- --
2019-11-20 21:00:00 -- -- -- -- -- -- -- -- --
2019-11-20 20:00:00 -- -- -- -- -- -- -- -- --
2019-11-20 19:00:00 8.8 4 Este 12 Sudeste 0 -- -- 69
2019-11-20 18:00:00 10.1 7 Sudeste 14 Este 0 -- -- 62
2019-11-20 17:00:00 11.5 8 Este 14 Este 0 -- -- 60
2019-11-20 16:00:00 12.1 8 Nordeste 14 Nordeste 0 -- -- 56
2019-11-20 15:00:00 12.9 5 Nordeste 12 Noroeste 0 -- -- 52
2019-11-20 14:00:00 12.9 3 Este 9 Este 0 -- -- 52
2019-11-20 13:00:00 11.3 3 Este 8 Nordeste 0 -- -- 59
2019-11-20 12:00:00 9.4 4 Nordeste 8 Nordeste 0 -- -- 67
2019-11-20 11:00:00 7.8 2 Este 6 Este 0 -- -- 73
2019-11-20 10:00:00 4.7 0 Calma 3 Sudoeste 0 -- -- 86
2019-11-20 09:00:00 1.2 0 Calma 5 Sur 0 -- -- 93
2019-11-20 08:00:00 0.7 0 Calma 8 Nordeste 0 -- -- 92
2019-11-20 07:00:00 1.3 0 Calma 7 Sudoeste 0 -- -- 89
2019-11-20 06:00:00 2.2 3 Sur 9 Sudoeste 0 -- -- 89
2019-11-20 05:00:00 2.6 0 Calma 5 Noroeste 0 -- -- 86
2019-11-20 04:00:00 3.9 4 Sudoeste 9 Sur 0 -- -- 81
2019-11-20 03:00:00 6.5 5 Sudoeste 13 Sudoeste 0 -- -- 71
2019-11-20 02:00:00 7.1 7 Sudoeste 17 Sudoeste 0 -- -- 69
2019-11-20 01:00:00 6.2 6 Oeste 14 Oeste 0 -- -- 73
2019-11-20 00:00:00 7 5 Oeste 15 Sudoeste 0 -- -- 71
2019-11-19 23:00:00 4.4 4 Sudoeste 10 Sudoeste 0 -- -- 86
2019-11-19 22:00:00 3.3 3 Sudoeste 7 Sudoeste 0 -- -- 88
2019-11-19 21:00:00 3.7 3 Sudoeste 5 Sur 0 -- -- 86
2019-11-19 20:00:00 4.3 2 Sur 7 Sur 0 -- -- 84
2019-11-19 19:00:00 5.5 4 Sudoeste 10 Sudoeste 0 -- -- 81
2019-11-19 18:00:00 8.3 0 Calma 15 Norte 0 -- -- 69
2019-11-19 17:00:00 11 6 Nordeste 18 Oeste 0 -- -- 57
2019-11-19 16:00:00 13.3 10 Sudoeste 19 Sudoeste 0 -- -- 47
2019-11-19 15:00:00 13.4 9 Sudoeste 19 Sudoeste 0 -- -- 45
2019-11-19 14:00:00 12.6 8 Sudoeste 24 Sudoeste 0 -- -- 48
2019-11-19 13:00:00 11.6 11 Sudoeste 24 Sudoeste 0 -- -- 50
2019-11-19 12:00:00 10.5 11 Sudoeste 25 Oeste 0 -- -- 52
2019-11-19 11:00:00 9.2 11 Oeste 23 Sudoeste 0 -- -- 57
2019-11-19 10:00:00 7.6 9 Oeste 19 Oeste 0 -- -- 62
2019-11-19 09:00:00 4.8 10 Oeste 24 Oeste 0 -- -- 71
2019-11-19 08:00:00 3.7 6 Oeste 20 Sudoeste 0 -- -- 74
2019-11-19 07:00:00 4 11 Oeste 19 Oeste 0 -- -- 73
2019-11-19 06:00:00 3.6 9 Oeste 19 Oeste 0 -- -- 75
2019-11-19 05:00:00 4.3 6 Oeste 17 Oeste 0 -- -- 73
2019-11-19 04:00:00 4 8 Sudoeste 16 Sudoeste 0 -- -- 75
2019-11-19 03:00:00 4.8 6 Oeste 17 Oeste 0 -- -- 70
2019-11-19 02:00:00 4.8 10 Oeste 19 Oeste 0 -- -- 71
2019-11-19 01:00:00 5.7 9 Oeste 20 Oeste 0 -- -- 67
2019-11-19 00:00:00 6.3 5 Noroeste 24 Norte 0 -- -- 65
2019-11-18 23:00:00 5.4 4 Oeste 23 Noroeste 0 -- -- 71
2019-11-18 22:00:00 6.5 9 Noroeste 20 Noroeste 0 -- -- 69
2019-11-18 21:00:00 6.4 5 Noroeste 28 Norte 0 -- -- 69
2019-11-18 20:00:00 6.5 2 Norte 19 Norte 0 -- -- 76
2019-11-18 19:00:00 7.4 13 Norte 24 Norte 0 -- -- 67
2019-11-18 18:00:00 7.9 11 Norte 23 Noroeste 0 -- -- 70
2019-11-18 17:00:00 9 12 Noroeste 30 Noroeste 0 -- -- 68
2019-11-18 16:00:00 9.3 13 Nordeste 40 Norte 0 -- -- 69
2019-11-18 15:00:00 9.2 19 Norte 37 Nordeste 0 -- -- 65
2019-11-18 14:00:00 10 18 Norte 38 Norte 0 -- -- 63
2019-11-18 13:00:00 9.4 19 Norte 40 Norte 0 -- -- 65
2019-11-18 12:00:00 10.1 21 Norte 39 Norte 0 -- -- 60
2019-11-18 11:00:00 9 14 Noroeste 29 Norte 0 -- -- 64
2019-11-18 10:00:00 7.6 8 Norte 17 Noroeste 0 -- -- 72
2019-11-18 09:00:00 7.5 8 Norte 30 Noroeste 0 -- -- 69
2019-11-18 08:00:00 7.4 18 Noroeste 41 Norte 0 -- -- 69
2019-11-18 07:00:00 6.8 6 Noroeste 18 Oeste 0 -- -- 71
2019-11-18 06:00:00 7.4 6 Sudoeste 21 Noroeste 0 -- -- 76
2019-11-18 05:00:00 6.9 4 Norte 15 Noroeste 0 -- -- 84
2019-11-18 04:00:00 6.7 4 Sudoeste 9 Sudoeste 0.2 -- -- 90
2019-11-18 03:00:00 7.2 5 Nordeste 12 Norte 0 -- -- 86
2019-11-18 02:00:00 6.9 7 Norte 20 Norte 0 -- -- 87
2019-11-18 01:00:00 6.4 5 Oeste 11 Sudoeste 0 -- -- 87
2019-11-18 00:00:00 6.4 2 Sudeste 9 Oeste 0 -- -- 85
2019-11-17 23:00:00 8.2 8 Oeste 14 Oeste 0 -- -- 81
2019-11-17 22:00:00 8.6 5 Oeste 19 Oeste 0 -- -- 81
2019-11-17 21:00:00 7.6 8 Sudoeste 13 Sudoeste 0 -- -- 86
2019-11-17 20:00:00 8 12 Sudoeste 31 Oeste 0.2 -- -- 85
2019-11-17 19:00:00 9 10 Sudoeste 31 Sudoeste 0 -- -- 75
2019-11-17 18:00:00 9.5 12 Oeste 28 Oeste 0 -- -- 70
2019-11-17 17:00:00 9.4 7 Oeste 36 Oeste 0 -- -- 71
2019-11-17 16:00:00 9.1 14 Oeste 36 Oeste 1 -- -- 73
2019-11-17 15:00:00 10.8 9 Oeste 32 Oeste 0 -- -- 65
2019-11-17 14:00:00 12.1 12 Sudoeste 29 Oeste 0 -- -- 58
2019-11-17 13:00:00 12 9 Oeste 27 Sudoeste 0 -- -- 56
2019-11-17 12:00:00 10.7 9 Oeste 28 Oeste 0 -- -- 60
2019-11-17 11:00:00 11.1 15 Sudoeste 35 Sudoeste 0 -- -- 59
2019-11-17 10:00:00 9 18 Oeste 39 Oeste 0 -- -- 65
2019-11-17 09:00:00 7.6 15 Sudoeste 36 Oeste 0 -- -- 67
2019-11-17 08:00:00 7.1 13 Oeste 35 Oeste 0 -- -- 67
2019-11-17 07:00:00 6.5 14 Sudoeste 32 Oeste 0 -- -- 68
2019-11-17 06:00:00 5.7 12 Sudoeste 26 Oeste 0 -- -- 69
2019-11-17 05:00:00 6.1 9 Oeste 29 Sudoeste 0 -- -- 66
2019-11-17 04:00:00 6.1 11 Sudoeste 31 Oeste 0 -- -- 64
2019-11-17 03:00:00 6.2 14 Sudoeste 26 Sudoeste 0 -- -- 64
2019-11-17 02:00:00 6.8 11 Oeste 29 Oeste 0 -- -- 61
2019-11-17 01:00:00 7.3 14 Oeste 27 Oeste 0 -- -- 60
2019-11-17 00:00:00 6.9 4 Oeste 20 Oeste 0 -- -- 62
2019-11-16 23:00:00 7.5 5 Oeste 31 Oeste 0 -- -- 64
2019-11-16 22:00:00 8.8 9 Oeste 28 Oeste 0 -- -- 59
2019-11-16 21:00:00 9.4 14 Oeste 32 Oeste 0 -- -- 57
2019-11-16 20:00:00 8.8 9 Oeste 23 Oeste 0 -- -- 59
2019-11-16 19:00:00 8.6 9 Oeste 26 Sudoeste 0 -- -- 59
2019-11-16 18:00:00 8.9 10 Oeste 24 Oeste 0 -- -- 57
2019-11-16 17:00:00 9.6 11 Sudoeste 25 Sudoeste 0 -- -- 54
2019-11-16 16:00:00 9.3 11 Oeste 29 Oeste 0 -- -- 57
2019-11-16 15:00:00 9.7 13 Oeste 28 Sudoeste 0 -- -- 55
2019-11-16 14:00:00 9.6 14 Sudoeste 36 Sudoeste 0 -- -- 58
2019-11-16 13:00:00 10.3 16 Sudoeste 30 Sudoeste 0 -- -- 54
2019-11-16 12:00:00 9.2 14 Sudoeste 35 Sudoeste 0 -- -- 60
2019-11-16 11:00:00 8.2 12 Oeste 27 Oeste 0 -- -- 60
2019-11-16 10:00:00 6.5 10 Oeste 25 Oeste 0 -- -- 65
2019-11-16 09:00:00 4.3 9 Oeste 22 Oeste 0 -- -- 76
2019-11-16 08:00:00 2.1 8 Oeste 19 Oeste 0 -- -- 90
2019-11-16 07:00:00 1.7 3 Sur 22 Oeste 0 -- -- 89
2019-11-16 06:00:00 2.6 9 Oeste 16 Oeste 0 -- -- 90
2019-11-16 05:00:00 2.3 6 Sudoeste 11 Oeste 0 -- -- 93
2019-11-16 04:00:00 1.2 5 Sudoeste 9 Sudoeste 0 -- -- 94
2019-11-16 03:00:00 1.6 3 Sudoeste 9 Nordeste 0 -- -- 94
2019-11-16 02:00:00 2 0 Calma 4 Sudoeste 0 -- -- 93
2019-11-16 01:00:00 2.6 0 Calma 5 Nordeste 0 -- -- 92
2019-11-16 00:00:00 3.6 3 Nordeste 6 Sudoeste 0 -- -- 90
2019-11-15 23:00:00 4.4 0 Calma 9 Sur 0 -- -- 88
2019-11-15 22:00:00 5.3 2 Sudoeste 10 Este 0 -- -- 83
2019-11-15 21:00:00 5.9 4 Este 7 Este 0 -- -- 80
2019-11-15 20:00:00 6.2 4 Este 12 Nordeste 0 -- -- 78
2019-11-15 19:00:00 6.8 0 Calma 7 Norte 0 -- -- 73
2019-11-15 18:00:00 8.6 5 Noroeste 22 Oeste 0 -- -- 66
2019-11-15 17:00:00 9.5 10 Oeste 24 Oeste 0 -- -- 61
2019-11-15 16:00:00 10.3 9 Oeste 28 Oeste 0 -- -- 57
2019-11-15 15:00:00 9.8 13 Oeste 36 Noroeste 0 -- -- 60
2019-11-15 14:00:00 10.7 16 Oeste 38 Oeste 0 -- -- 55
2019-11-15 13:00:00 10.8 17 Oeste 35 Oeste 0 -- -- 56
2019-11-15 12:00:00 9.4 14 Oeste 28 Oeste 0 -- -- 60
2019-11-15 11:00:00 8.8 12 Oeste 31 Oeste 0 -- -- 64
2019-11-15 10:00:00 7.4 15 Oeste 35 Oeste 0 -- -- 68
2019-11-15 09:00:00 6.5 9 Oeste 23 Sudoeste 0 -- -- 72
2019-11-15 08:00:00 5.3 9 Sudoeste 22 Sudoeste 0 -- -- 73
2019-11-15 07:00:00 5 10 Sudoeste 24 Oeste 0 -- -- 71
2019-11-15 06:00:00 5.2 10 Sudoeste 23 Oeste 0 -- -- 73
2019-11-15 05:00:00 5 9 Oeste 18 Oeste 0 -- -- 77
2019-11-15 04:00:00 4.4 5 Sudoeste 8 Sudoeste 0 -- -- 85
2019-11-15 03:00:00 5.4 4 Noroeste 18 Oeste 0 -- -- 81
2019-11-15 02:00:00 5.4 4 Oeste 14 Oeste 0 -- -- 82
2019-11-15 01:00:00 5.7 4 Oeste 13 Oeste 0 -- -- 82
2019-11-15 00:00:00 5.3 4 Sudoeste 10 Sudoeste 0 -- -- 88
2019-11-14 23:00:00 4.7 5 Norte 8 Sudoeste 0 -- -- 91
2019-11-14 22:00:00 5.4 3 Sur 11 Oeste 0.2 -- -- 90
2019-11-14 21:00:00 5.9 6 Oeste 16 Oeste 1 -- -- 85
2019-11-14 20:00:00 7.5 8 Noroeste 18 Oeste 0 -- -- 68
2019-11-14 19:00:00 7.8 7 Sudoeste 19 Oeste 0 -- -- 65
2019-11-14 18:00:00 8.9 7 Oeste 20 Oeste 0 -- -- 54
2019-11-14 17:00:00 10.3 10 Oeste 22 Oeste 0 -- -- 45
2019-11-14 16:00:00 10.6 9 Oeste 32 Oeste 0 -- -- 50
2019-11-14 15:00:00 10.3 13 Noroeste 35 Sudoeste 0 -- -- 48
2019-11-14 14:00:00 11 14 Oeste 35 Oeste 0 -- -- 49
2019-11-14 13:00:00 10.6 12 Sudoeste 26 Sur 0 -- -- 63
2019-11-14 12:00:00 8.3 9 Sudoeste 19 Sudoeste 0 -- -- 75
2019-11-14 11:00:00 6.7 5 Sudoeste 15 Sur 0 -- -- 83
2019-11-14 10:00:00 5.8 8 Sur 17 Sur 0 -- -- 87
2019-11-14 09:00:00 5.6 4 Norte 20 Noroeste 0.2 -- -- 86
2019-11-14 08:00:00 5.2 6 Noroeste 54 Noroeste 2.6 -- -- 89
2019-11-14 07:00:00 11.2 12 Oeste 33 Oeste 0 -- -- 69
2019-11-14 06:00:00 12.3 13 Sudoeste 36 Sudoeste 0 -- -- 57
2019-11-14 05:00:00 12 11 Sudoeste 30 Oeste 0 -- -- 61
2019-11-14 04:00:00 12.4 10 Oeste 28 Sudoeste 0 -- -- 58
2019-11-14 03:00:00 12.6 12 Sudoeste 27 Oeste 0 -- -- 60
2019-11-14 02:00:00 13.1 13 Oeste 37 Oeste 0 -- -- 60
2019-11-14 01:00:00 13.1 20 Oeste 44 Sudoeste 0 -- -- 56
2019-11-14 00:00:00 13.4 17 Sudoeste 34 Oeste 0 -- -- 54
2019-11-13 23:00:00 13 11 Sudoeste 28 Sudoeste 0 -- -- 57
2019-11-13 22:00:00 12.1 17 Sudoeste 30 Sudoeste 0 -- -- 63
2019-11-13 21:00:00 6.5 4 Oeste 9 Sudoeste 0 -- -- 89
2019-11-13 20:00:00 7.9 0 Calma 11 Sudoeste 0 -- -- 83
2019-11-13 19:00:00 8.1 6 Sudoeste 10 Sudoeste 0 -- -- 83
2019-11-13 18:00:00 10.2 3 Sur 22 Noroeste 0 -- -- 74
2019-11-13 17:00:00 12.3 15 Norte 27 Noroeste 0 -- -- 64
2019-11-13 16:00:00 14.6 14 Norte 28 Noroeste 0 -- -- 51
2019-11-13 15:00:00 14.5 17 Norte 41 Norte 0.2 -- -- 51
2019-11-13 14:00:00 14.5 16 Norte 30 Norte 0 -- -- 60
2019-11-13 13:00:00 13.7 18 Norte 30 Noroeste 0 -- -- 63
2019-11-13 12:00:00 13.6 19 Norte 35 Norte 0 -- -- 64
2019-11-13 11:00:00 13.2 12 Noroeste 27 Noroeste 0 -- -- 68
2019-11-13 10:00:00 11.1 7 Noroeste 22 Noroeste 0 -- -- 80
2019-11-13 09:00:00 8.7 3 Nordeste 9 Noroeste 0 -- -- 95
2019-11-13 08:00:00 8.3 3 Norte 20 Norte 1.2 -- -- 95
2019-11-13 07:00:00 8.4 10 Norte 17 Norte 1 -- -- 95
2019-11-13 06:00:00 8.6 3 Norte 7 Norte 1 -- -- 94
2019-11-13 05:00:00 8.8 4 Nordeste 18 Oeste 1.6 -- -- 91
2019-11-13 04:00:00 9.3 6 Oeste 17 Oeste 0.8 -- -- 89
2019-11-13 03:00:00 9.2 5 Sudoeste 17 Oeste 1.6 -- -- 88
2019-11-13 02:00:00 9.8 9 Sudoeste 21 Sudoeste 0 -- -- 78
2019-11-13 01:00:00 9.5 8 Sudoeste 23 Sudoeste 0 -- -- 77
2019-11-13 00:00:00 9 8 Sudoeste 26 Sudoeste 0 -- -- 82
2019-11-12 23:00:00 9 6 Sudoeste 23 Sudoeste 2 -- -- 84
2019-11-12 22:00:00 10 8 Oeste 32 Sudoeste 0.6 -- -- 75
2019-11-12 21:00:00 11.8 14 Oeste 28 Oeste 0 -- -- 58
2019-11-12 20:00:00 11.3 10 Oeste 30 Sudoeste 0 -- -- 59
2019-11-12 19:00:00 10.7 6 Oeste 18 Oeste 0 -- -- 61
2019-11-12 18:00:00 11.6 3 Oeste 20 Oeste 0 -- -- 58
2019-11-12 17:00:00 13.4 4 Nordeste 8 Este 0 -- -- 58
2019-11-12 16:00:00 12.6 4 Norte 15 Norte 0 -- -- 62
2019-11-12 15:00:00 13 8 Oeste 25 Sudoeste 0 -- -- 54
2019-11-12 14:00:00 14.3 13 Sudoeste 30 Sudoeste 0 -- -- 50
2019-11-12 13:00:00 12.4 14 Sudoeste 26 Sudoeste 0 -- -- 56
2019-11-12 12:00:00 12.1 11 Sudoeste 28 Sudoeste 0 -- -- 57
2019-11-12 11:00:00 10.4 10 Sudoeste 23 Oeste 0 -- -- 60
2019-11-12 10:00:00 9.4 6 Sudoeste 21 Sudoeste 0 -- -- 63
2019-11-12 09:00:00 8.4 9 Oeste 21 Oeste 0 -- -- 65
2019-11-12 08:00:00 8 4 Oeste 19 Sudoeste 0 -- -- 66
2019-11-12 07:00:00 8.2 8 Oeste 20 Sudoeste 0 -- -- 65
2019-11-12 06:00:00 8.1 9 Sudoeste 16 Oeste 0 -- -- 65
2019-11-12 05:00:00 8.4 7 Oeste 15 Oeste 0 -- -- 64
2019-11-12 04:00:00 7.6 5 Oeste 23 Noroeste 0 -- -- 64
2019-11-12 03:00:00 7.6 5 Noroeste 21 Noroeste 0 -- -- 65
2019-11-12 02:00:00 8 12 Noroeste 30 Noroeste 0 -- -- 63
2019-11-12 01:00:00 8.1 10 Noroeste 25 Oeste 0 -- -- 66
2019-11-12 00:00:00 7.7 5 Oeste 26 Norte 0 -- -- 69
2019-11-11 23:00:00 8.1 9 Noroeste 21 Noroeste 0 -- -- 68
2019-11-11 22:00:00 8.5 7 Noroeste 30 Norte 0 -- -- 67
2019-11-11 21:00:00 8.9 12 Noroeste 28 Noroeste 0 -- -- 67
2019-11-11 20:00:00 9.6 10 Oeste 35 Noroeste 0 -- -- 64
2019-11-11 19:00:00 10.1 10 Noroeste 36 Noroeste 0 -- -- 60
2019-11-11 18:00:00 10.6 9 Noroeste 49 Norte 0 -- -- 68
2019-11-11 17:00:00 11.6 17 Noroeste 46 Noroeste 0 -- -- 64
2019-11-11 16:00:00 11.5 9 Oeste 21 Oeste 0 -- -- 78
2019-11-11 15:00:00 10.9 9 Oeste 22 Oeste 0 -- -- 75
2019-11-11 14:00:00 9.9 10 Sudoeste 26 Oeste 0.4 -- -- 81
2019-11-11 13:00:00 10.5 14 Sudoeste 30 Oeste 0 -- -- 72
2019-11-11 12:00:00 10.6 11 Sudoeste 24 Oeste 0 -- -- 66
2019-11-11 11:00:00 9.8 10 Oeste 23 Sudoeste 0 -- -- 65
2019-11-11 10:00:00 9.2 10 Oeste 23 Oeste 0 -- -- 65
2019-11-11 09:00:00 8.1 8 Oeste 23 Sudoeste 0 -- -- 69
2019-11-11 08:00:00 7.6 12 Sudoeste 23 Oeste 0 -- -- 69
2019-11-11 07:00:00 7.2 10 Sudoeste 26 Sudoeste 0 -- -- 69
2019-11-11 06:00:00 7.1 11 Oeste 23 Oeste 0 -- -- 68
2019-11-11 05:00:00 6.5 10 Oeste 23 Oeste 0 -- -- 68
2019-11-11 04:00:00 6.6 9 Oeste 21 Oeste 0 -- -- 68
2019-11-11 03:00:00 7 8 Sudoeste 21 Sudoeste 0 -- -- 67
2019-11-11 02:00:00 7.2 9 Sudoeste 22 Sudoeste 0 -- -- 66
2019-11-11 01:00:00 7 8 Oeste 19 Sudoeste 0 -- -- 66
2019-11-11 00:00:00 7.4 6 Oeste 16 Sudoeste 0 -- -- 64
2019-11-10 23:00:00 5.3 4 Noroeste 10 Sudoeste 0 -- -- 73
2019-11-10 22:00:00 5.4 0 Calma 13 Oeste 0 -- -- 71
2019-11-10 21:00:00 5.8 5 Sudoeste 12 Sudoeste 0 -- -- 68
2019-11-10 20:00:00 7.1 6 Noroeste 26 Noroeste 0 -- -- 63
2019-11-10 19:00:00 7.3 11 Norte 24 Noroeste 0 -- -- 64
2019-11-10 18:00:00 8 6 Oeste 25 Oeste 0 -- -- 65
2019-11-10 17:00:00 9.4 15 Noroeste 30 Noroeste 0 -- -- 62
2019-11-10 16:00:00 9.6 17 Norte 39 Noroeste 0 -- -- 61
2019-11-10 15:00:00 11.1 9 Oeste 32 Sudoeste 0 -- -- 57
2019-11-10 14:00:00 10.5 12 Oeste 30 Oeste 0 -- -- 58
2019-11-10 13:00:00 10.7 12 Oeste 27 Sudoeste 0 -- -- 58
2019-11-10 12:00:00 9.8 13 Oeste 32 Oeste 0 -- -- 62
2019-11-10 11:00:00 9.5 13 Oeste 27 Oeste 0 -- -- 60
2019-11-10 10:00:00 8.4 12 Oeste 24 Oeste 0 -- -- 64
2019-11-10 09:00:00 7.8 4 Sudoeste 17 Oeste 0 -- -- 68
2019-11-10 08:00:00 7.4 9 Noroeste 23 Norte 0 -- -- 67
2019-11-10 07:00:00 7.6 12 Norte 24 Noroeste 0 -- -- 66
2019-11-10 06:00:00 7.6 8 Noroeste 23 Norte 0 -- -- 67
2019-11-10 05:00:00 7.5 7 Norte 30 Noroeste 0 -- -- 70
2019-11-10 04:00:00 7.4 5 Noroeste 30 Noroeste 0 -- -- 74
2019-11-10 03:00:00 7.5 9 Oeste 23 Oeste 0 -- -- 75
2019-11-10 02:00:00 6.9 5 Oeste 17 Oeste 0 -- -- 84
2019-11-10 01:00:00 6.7 5 Oeste 16 Oeste 0 -- -- 86
2019-11-10 00:00:00 6.6 10 Oeste 35 Norte 2.6 -- -- 84
2019-11-09 23:00:00 8.8 20 Norte 40 Norte 1.2 -- -- 79
2019-11-09 22:00:00 11.2 11 Sudoeste 32 Oeste 0 -- -- 67
2019-11-09 21:00:00 11.6 16 Sudoeste 37 Oeste 0 -- -- 67
2019-11-09 20:00:00 12.3 17 Oeste 37 Oeste 0 -- -- 64
2019-11-09 19:00:00 12 12 Oeste 47 Sudoeste 0 -- -- 63
2019-11-09 18:00:00 12.3 14 Sudoeste 45 Sudoeste 0 -- -- 61
2019-11-09 17:00:00 12.7 14 Oeste 40 Oeste 0 -- -- 57
2019-11-09 16:00:00 13.2 17 Oeste 44 Oeste 0 -- -- 55
2019-11-09 15:00:00 11.7 15 Oeste 36 Oeste 0 -- -- 60
2019-11-09 14:00:00 12.5 14 Oeste 41 Oeste 0 -- -- 54
2019-11-09 13:00:00 12.4 13 Oeste 37 Sudoeste 0 -- -- 52
2019-11-09 12:00:00 12.8 14 Sudoeste 40 Sudoeste 0 -- -- 51
2019-11-09 11:00:00 11.3 18 Sudoeste 38 Oeste 0 -- -- 55
2019-11-09 10:00:00 10.3 14 Oeste 35 Oeste 0 -- -- 57
2019-11-09 09:00:00 8.7 12 Sudoeste 31 Oeste 0 -- -- 62
2019-11-09 08:00:00 8 15 Oeste 28 Oeste 0 -- -- 64
2019-11-09 07:00:00 8.6 11 Oeste 24 Oeste 0 -- -- 61
2019-11-09 06:00:00 8.1 11 Oeste 26 Oeste 0 -- -- 62
2019-11-09 05:00:00 7.5 9 Oeste 26 Oeste 0 -- -- 63
2019-11-09 04:00:00 8.5 10 Oeste 24 Noroeste 0 -- -- 59
2019-11-09 03:00:00 8.4 6 Sudoeste 14 Oeste 0 -- -- 58
2019-11-09 02:00:00 8.9 3 Oeste 21 Sudoeste 0 -- -- 56
2019-11-09 01:00:00 9.3 9 Sudoeste 26 Oeste 0 -- -- 56
2019-11-09 00:00:00 10 9 Sudoeste 24 Oeste 0 -- -- 54
2019-11-08 23:00:00 10.5 12 Sudoeste 30 Oeste 0 -- -- 53
2019-11-08 22:00:00 10.9 9 Sudoeste 31 Oeste 0 -- -- 53
2019-11-08 21:00:00 10.9 7 Oeste 26 Oeste 0 -- -- 56
2019-11-08 20:00:00 9.9 3 Oeste 34 Noroeste 0 -- -- 63
2019-11-08 19:00:00 9.6 6 Noroeste 31 Noroeste 0 -- -- 65
2019-11-08 18:00:00 9.1 6 Oeste 39 Oeste 0.6 -- -- 70
2019-11-08 17:00:00 11.5 17 Noroeste 39 Oeste 0 -- -- 53
2019-11-08 16:00:00 11 15 Noroeste 40 Oeste 0 -- -- 59
2019-11-08 15:00:00 11.9 15 Oeste 49 Oeste 0 -- -- 48
2019-11-08 14:00:00 12.7 17 Oeste 44 Sudoeste 0 -- -- 47
2019-11-08 13:00:00 12.5 16 Oeste 42 Oeste 0 -- -- 47
2019-11-08 12:00:00 10.9 15 Oeste 42 Oeste 0 -- -- 52
2019-11-08 11:00:00 11 20 Oeste 41 Oeste 0 -- -- 51
2019-11-08 10:00:00 9.9 16 Oeste 37 Oeste 0 -- -- 55
2019-11-08 09:00:00 8.6 12 Oeste 36 Oeste 0 -- -- 57
2019-11-08 08:00:00 7.6 17 Oeste 36 Oeste 0 -- -- 59
2019-11-08 07:00:00 7.4 15 Oeste 34 Sudoeste 0 -- -- 59
2019-11-08 06:00:00 7.7 14 Oeste 42 Noroeste 0 -- -- 56
2019-11-08 05:00:00 7.5 14 Oeste 37 Sudoeste 0 -- -- 58
2019-11-08 04:00:00 7.4 15 Oeste 39 Oeste 0 -- -- 58
2019-11-08 03:00:00 7.5 18 Oeste 40 Oeste 0 -- -- 56
2019-11-08 02:00:00 7.8 14 Oeste 41 Oeste 0 -- -- 59
2019-11-08 01:00:00 8.1 14 Oeste 33 Oeste 0 -- -- 58
2019-11-08 00:00:00 8.4 13 Oeste 30 Oeste 0 -- -- 58